Time;durP1;ratioP1;P1;durP2;ratioP2;P2;SDS_P1;SDS_P2;PMS_P1;PMS_P2;Temp;Humidity;BMP_temperature;BMP_pressure;BME280_temperature;BME280_humidity;BME280_pressure;Samples;Min_cycle;Max_cycle;Signal;HPM_P1;HPM_P2
2023/01/14 00:00:53;;;;;;;2.90;2.30;;;11.70;59.40;;;;;;5008670;28;20440;-60
2023/01/14 00:03:18;;;;;;;4.50;2.17;;;11.50;59.80;;;;;;5003997;28;20448;-60
2023/01/14 00:05:57;;;;;;;4.30;2.27;;;11.30;60.20;;;;;;5010534;28;20218;-60
2023/01/14 00:08:23;;;;;;;2.80;2.10;;;11.30;60.90;;;;;;4992079;28;20202;-60
2023/01/14 00:10:49;;;;;;;5.63;2.00;;;11.00;61.70;;;;;;4992613;28;20505;-60
2023/01/14 00:13:14;;;;;;;8.20;2.27;;;11.00;62.50;;;;;;5004042;28;20194;-60
2023/01/14 00:15:51;;;;;;;3.70;1.67;;;11.00;61.90;;;;;;5000590;28;20340;-59
2023/01/14 00:18:17;;;;;;;4.60;1.93;;;11.00;61.80;;;;;;5009165;28;20185;-59
2023/01/14 00:20:42;;;;;;;4.33;2.10;;;11.20;61.20;;;;;;5010709;28;20828;-60
2023/01/14 00:23:08;;;;;;;4.40;2.10;;;11.40;60.90;;;;;;5004630;28;20559;-60
2023/01/14 00:25:34;;;;;;;4.50;3.50;;;11.40;60.70;;;;;;4996158;28;20198;-60
2023/01/14 00:28:00;;;;;;;2.67;1.70;;;11.50;60.40;;;;;;5007316;28;20203;-60
2023/01/14 00:30:25;;;;;;;4.77;1.80;;;11.50;60.10;;;;;;5008201;28;20459;-60
2023/01/14 00:32:51;;;;;;;4.73;2.07;;;11.60;59.90;;;;;;4999382;28;20335;-60
2023/01/14 00:35:16;;;;;;;2.57;1.70;;;11.70;59.70;;;;;;4999351;28;20272;-60
2023/01/14 00:37:42;;;;;;;6.00;1.90;;;11.60;59.50;;;;;;5010646;28;20201;-60
2023/01/14 00:40:08;;;;;;;2.53;1.63;;;11.60;59.30;;;;;;4998363;28;20273;-60
2023/01/14 00:42:33;;;;;;;6.33;2.17;;;11.60;59.30;;;;;;4995704;28;20206;-60
2023/01/14 00:44:59;;;;;;;3.90;1.80;;;11.60;59.20;;;;;;5007390;28;20429;-59
2023/01/14 00:47:25;;;;;;;3.63;1.67;;;11.70;59.00;;;;;;5014771;28;20261;-58
2023/01/14 00:49:51;;;;;;;4.53;1.80;;;11.80;58.90;;;;;;5014593;28;20594;-58
2023/01/14 00:52:16;;;;;;;4.77;2.10;;;11.70;58.60;;;;;;4995069;28;20190;-58
2023/01/14 00:54:42;;;;;;;3.53;1.70;;;11.60;58.60;;;;;;5002876;28;20797;-59
2023/01/14 00:57:07;;;;;;;2.17;1.77;;;11.50;58.70;;;;;;5010589;28;20285;-59
2023/01/14 00:59:33;;;;;;;7.23;2.40;;;11.40;59.00;;;;;;5012756;28;20194;-59
2023/01/14 01:01:58;;;;;;;5.53;2.53;;;11.30;59.10;;;;;;5009061;28;20190;-59
2023/01/14 01:04:24;;;;;;;5.87;2.47;;;11.30;59.20;;;;;;5009533;28;20913;-59
2023/01/14 01:06:50;;;;;;;4.03;1.83;;;11.30;59.30;;;;;;5007977;28;20564;-59
2023/01/14 01:09:15;;;;;;;3.90;1.67;;;11.10;59.40;;;;;;5001301;28;20645;-59
2023/01/14 01:11:41;;;;;;;7.67;1.67;;;11.10;59.50;;;;;;5006343;28;20224;-59
2023/01/14 01:14:07;;;;;;;4.17;1.50;;;11.10;59.70;;;;;;5005505;28;20267;-59
2023/01/14 01:16:32;;;;;;;2.73;1.50;;;10.90;59.80;;;;;;5007289;28;20598;-58
2023/01/14 01:18:58;;;;;;;4.30;2.10;;;10.90;59.70;;;;;;5010999;28;20194;-58
2023/01/14 01:21:24;;;;;;;3.13;1.80;;;10.80;60.10;;;;;;4999461;28;20197;-58
2023/01/14 01:23:50;;;;;;;2.50;1.53;;;10.80;60.40;;;;;;5012151;28;20670;-58
2023/01/14 01:26:19;;;;;;;5.73;2.10;;;10.80;60.20;;;;;;5010005;28;20464;-59
2023/01/14 01:28:53;;;;;;;4.47;1.70;;;10.80;60.10;;;;;;5006204;28;20225;-59
2023/01/14 01:31:21;;;;;;;2.10;1.70;;;11.00;59.80;;;;;;4998628;28;20484;-59
2023/01/14 01:33:47;;;;;;;4.60;1.83;;;11.20;59.70;;;;;;5007302;28;20453;-59
2023/01/14 01:36:15;;;;;;;2.40;1.47;;;11.20;59.40;;;;;;4999804;28;20588;-59
2023/01/14 01:38:41;;;;;;;6.07;2.37;;;11.30;59.30;;;;;;5004050;28;20488;-59
2023/01/14 01:41:07;;;;;;;5.10;2.00;;;11.30;59.00;;;;;;5004323;28;20933;-59
2023/01/14 01:43:33;;;;;;;4.90;1.73;;;11.30;58.80;;;;;;5000934;28;20453;-59
2023/01/14 01:45:59;;;;;;;7.90;2.13;;;11.30;58.60;;;;;;5001734;28;20562;-59
2023/01/14 01:48:43;;;;;;;7.30;1.70;;;11.30;58.60;;;;;;5000916;28;20483;-59
2023/01/14 01:51:21;;;;;;;4.43;2.10;;;11.30;58.60;;;;;;5009906;28;20433;-59
2023/01/14 01:53:51;;;;;;;7.50;1.87;;;11.30;58.40;;;;;;5005534;28;20744;-59
2023/01/14 01:56:20;;;;;;;5.13;2.00;;;11.40;58.40;;;;;;5000477;28;20492;-59
2023/01/14 01:58:47;;;;;;;6.87;2.07;;;11.40;58.40;;;;;;5007201;28;20429;-59
2023/01/14 02:01:14;;;;;;;1.83;1.50;;;11.30;58.30;;;;;;4998321;28;20794;-59
2023/01/14 02:03:43;;;;;;;3.07;1.67;;;11.40;58.20;;;;;;5004347;28;20774;-59
2023/01/14 02:06:10;;;;;;;4.90;1.77;;;11.40;58.20;;;;;;5013137;28;20425;-59
2023/01/14 02:08:40;;;;;;;2.53;1.40;;;11.40;58.10;;;;;;5010549;28;20912;-59
2023/01/14 02:11:23;;;;;;;3.57;1.80;;;11.40;58.00;;;;;;5011036;28;20523;-59
2023/01/14 02:13:59;;;;;;;3.70;1.97;;;11.40;58.20;;;;;;5010153;28;20456;-59
2023/01/14 02:16:37;;;;;;;7.63;2.60;;;11.40;58.20;;;;;;5003262;28;20550;-59
2023/01/14 02:19:26;;;;;;;6.83;2.00;;;11.30;58.00;;;;;;5001548;28;20994;-59
2023/01/14 02:22:29;;;;;;;4.00;2.00;;;11.20;58.30;;;;;;5001066;28;20948;-59
2023/01/14 02:24:54;;;;;;;3.07;1.40;;;11.30;58.20;;;;;;5006641;28;20448;-59
2023/01/14 02:27:23;;;;;;;4.97;2.10;;;11.30;58.00;;;;;;5007742;28;20968;-59
2023/01/14 02:30:36;;;;;;;3.10;1.60;;;11.30;58.00;;;;;;5009080;28;20206;-59
2023/01/14 02:33:23;;;;;;;4.67;1.50;;;11.30;57.90;;;;;;5004002;28;20560;-59
2023/01/14 02:36:10;;;;;;;5.40;1.60;;;11.30;58.00;;;;;;4993958;28;20511;-59
2023/01/14 02:38:36;;;;;;;4.00;1.50;;;11.20;57.90;;;;;;5003368;28;20500;-59
2023/01/14 02:44:07;;;;;;;2.70;2.00;;;11.10;57.90;;;;;;4996708;28;20449;-59
2023/01/14 02:44:14;;;;;;;5.80;2.07;;;11.00;58.10;;;;;;5009979;28;20646;-59
2023/01/14 02:46:49;;;;;;;4.67;1.87;;;11.10;58.00;;;;;;4998285;28;20445;-59
2023/01/14 02:49:20;;;;;;;5.10;2.30;;;11.10;57.90;;;;;;5007534;28;20476;-58
2023/01/14 02:51:47;;;;;;;5.47;2.30;;;10.90;58.00;;;;;;5007128;28;20432;-58
2023/01/14 02:54:13;;;;;;;2.53;1.70;;;10.90;58.30;;;;;;5011019;28;20467;-58
2023/01/14 02:56:39;;;;;;;5.10;1.97;;;10.90;58.20;;;;;;5007866;28;20998;-58
2023/01/14 02:59:17;;;;;;;2.20;1.40;;;11.00;58.30;;;;;;5002186;28;20217;-59
2023/01/14 03:01:51;;;;;;;5.00;1.60;;;10.90;58.20;;;;;;5003869;28;20449;-59
2023/01/14 03:04:55;;;;;;;4.20;1.93;;;10.80;58.30;;;;;;5005483;28;20451;-58
2023/01/14 03:07:34;;;;;;;6.17;2.20;;;10.80;58.40;;;;;;5007427;28;20456;-59
2023/01/14 03:10:18;;;;;;;6.10;1.63;;;10.70;58.40;;;;;;5000011;28;20495;-59
2023/01/14 03:12:46;;;;;;;4.40;1.80;;;10.70;58.70;;;;;;5005343;28;20974;-59
2023/01/14 03:15:54;;;;;;;3.83;1.73;;;10.80;58.70;;;;;;5002405;28;20508;-58
2023/01/14 03:18:44;;;;;;;6.90;1.83;;;10.90;58.70;;;;;;5010117;28;20452;-58
2023/01/14 03:21:17;;;;;;;8.40;2.33;;;10.90;58.40;;;;;;5003515;28;20454;-59
2023/01/14 03:23:50;;;;;;;4.70;2.53;;;10.80;58.30;;;;;;5004021;28;20460;-59
2023/01/14 03:26:16;;;;;;;5.37;1.60;;;10.90;58.30;;;;;;5007543;28;20514;-59
2023/01/14 03:28:49;;;;;;;6.37;2.13;;;10.90;58.00;;;;;;5009842;28;20445;-58
2023/01/14 03:31:21;;;;;;;3.67;1.70;;;10.80;58.20;;;;;;5005493;28;20475;-59
2023/01/14 03:33:55;;;;;;;3.23;1.83;;;10.80;58.10;;;;;;5006828;28;20799;-58
2023/01/14 03:36:23;;;;;;;3.73;1.37;;;10.90;58.40;;;;;;5005835;28;20531;-58
2023/01/14 03:38:56;;;;;;;5.17;1.60;;;11.00;58.40;;;;;;5003454;28;20484;-59
2023/01/14 03:44:21;;;;;;;6.37;1.70;;;10.90;58.50;;;;;;5003024;28;20518;-59
2023/01/14 03:46:47;;;;;;;5.20;1.50;;;10.80;58.50;;;;;;5004427;28;20495;-58
2023/01/14 03:49:12;;;;;;;8.07;1.87;;;10.80;58.50;;;;;;5003419;28;20481;-59
2023/01/14 03:52:11;;;;;;;3.83;1.30;;;10.80;58.50;;;;;;5002010;28;20241;-59
2023/01/14 03:54:48;;;;;;;2.07;1.50;;;10.80;58.50;;;;;;4998691;28;20210;-58
2023/01/14 03:57:23;;;;;;;5.67;1.80;;;10.80;58.40;;;;;;5001559;28;20475;-59
2023/01/14 03:59:53;;;;;;;3.10;1.20;;;10.80;58.50;;;;;;5005826;28;20448;-59
2023/01/14 04:02:21;;;;;;;5.30;1.20;;;10.70;58.50;;;;;;5004207;28;20835;-59
2023/01/14 04:04:49;;;;;;;5.70;1.57;;;10.70;58.70;;;;;;5005508;28;20456;-58
2023/01/14 04:07:15;;;;;;;3.80;1.33;;;10.80;58.80;;;;;;5000494;28;20809;-59
2023/01/14 04:09:40;;;;;;;2.53;1.40;;;10.80;58.70;;;;;;4998513;28;20446;-58
2023/01/14 04:12:06;;;;;;;5.23;1.40;;;10.90;58.40;;;;;;4997846;28;20776;-58
2023/01/14 04:17:16;;;;;;;3.00;1.60;;;10.70;58.40;;;;;;5001807;28;20839;-58
2023/01/14 04:19:41;;;;;;;5.57;1.57;;;10.80;58.50;;;;;;4996315;28;20445;-58
2023/01/14 04:22:07;;;;;;;5.37;1.47;;;10.80;58.40;;;;;;5001347;28;20221;-59
2023/01/14 04:24:32;;;;;;;4.73;1.30;;;10.70;58.60;;;;;;5001163;28;20217;-59
2023/01/14 04:26:58;;;;;;;2.00;0.93;;;10.60;58.70;;;;;;5006607;28;20277;-58
2023/01/14 04:29:24;;;;;;;5.83;1.23;;;10.60;58.80;;;;;;5008840;28;20190;-59
2023/01/14 04:31:49;;;;;;;2.33;1.43;;;10.60;59.10;;;;;;5005290;28;20276;-59
2023/01/14 04:34:15;;;;;;;2.77;1.50;;;10.60;58.90;;;;;;4999572;28;20202;-59
2023/01/14 04:36:40;;;;;;;3.73;1.10;;;10.60;58.90;;;;;;5002530;28;20584;-59
2023/01/14 04:39:06;;;;;;;4.77;1.17;;;10.70;58.70;;;;;;4999850;28;20194;-59
2023/01/14 04:44:16;;;;;;;3.83;1.50;;;10.70;58.40;;;;;;4994163;28;20212;-59
2023/01/14 04:46:42;;;;;;;2.40;0.93;;;10.70;58.30;;;;;;5003979;28;20440;-59
2023/01/14 04:49:07;;;;;;;1.10;0.90;;;10.80;58.10;;;;;;5007181;28;20361;-59
2023/01/14 04:51:33;;;;;;;5.60;1.40;;;10.70;58.30;;;;;;5004880;28;20198;-59
2023/01/14 04:53:58;;;;;;;4.73;1.30;;;10.80;58.40;;;;;;5007535;28;20197;-59
2023/01/14 04:56:24;;;;;;;3.30;1.80;;;10.70;58.30;;;;;;5001756;28;20806;-59
2023/01/14 04:58:50;;;;;;;1.70;1.33;;;10.70;58.10;;;;;;5007092;28;20276;-59
2023/01/14 05:01:15;;;;;;;4.40;1.37;;;10.70;58.30;;;;;;5002473;28;20194;-58
2023/01/14 05:03:41;;;;;;;3.37;1.13;;;10.80;58.30;;;;;;5005495;28;21174;-59
2023/01/14 05:06:07;;;;;;;2.87;1.23;;;10.80;58.20;;;;;;5010570;28;20196;-59
2023/01/14 05:08:32;;;;;;;5.57;1.43;;;10.90;58.20;;;;;;5007671;28;20229;-58
2023/01/14 05:10:58;;;;;;;4.07;1.23;;;10.90;58.00;;;;;;5011486;28;20445;-58
2023/01/14 05:13:23;;;;;;;2.07;1.00;;;11.00;57.90;;;;;;5007315;28;20672;-59
2023/01/14 05:15:49;;;;;;;3.00;1.37;;;11.00;57.70;;;;;;5011863;28;20742;-59
2023/01/14 05:18:15;;;;;;;3.70;1.10;;;11.10;57.60;;;;;;5007193;28;20191;-58
2023/01/14 05:20:42;;;;;;;9.37;1.57;;;11.10;57.60;;;;;;4995948;28;20190;-58
2023/01/14 05:23:16;;;;;;;5.37;1.20;;;11.10;57.50;;;;;;5003499;28;20446;-58
2023/01/14 05:25:42;;;;;;;2.50;1.67;;;11.20;57.50;;;;;;4999356;28;20460;-59
2023/01/14 05:28:11;;;;;;;4.53;1.80;;;11.20;57.30;;;;;;5001518;28;20434;-59
2023/01/14 05:30:36;;;;;;;4.17;1.50;;;11.20;57.90;;;;;;5008145;28;20559;-58
2023/01/14 05:33:02;;;;;;;5.37;1.30;;;11.20;57.20;;;;;;5010639;28;20549;-59
2023/01/14 05:35:28;;;;;;;5.00;1.40;;;11.30;57.00;;;;;;5013196;28;20657;-59
2023/01/14 05:37:53;;;;;;;4.50;1.30;;;11.40;56.90;;;;;;5009054;28;22241;-58
2023/01/14 05:40:20;;;;;;;6.83;1.40;;;11.30;56.70;;;;;;5006857;28;20661;-58
2023/01/14 05:45:49;;;;;;;2.77;1.00;;;11.40;56.80;;;;;;5006893;28;20480;-58
2023/01/14 05:48:20;;;;;;;4.07;1.33;;;11.40;56.50;;;;;;4998444;28;20477;-59
2023/01/14 05:50:50;;;;;;;3.40;1.20;;;11.40;56.50;;;;;;5006263;28;20536;-59
2023/01/14 05:53:16;;;;;;;3.50;1.67;;;11.40;56.30;;;;;;5013566;28;20931;-59
2023/01/14 05:55:41;;;;;;;2.87;1.33;;;11.20;56.30;;;;;;5010813;28;20477;-58
2023/01/14 05:58:07;;;;;;;4.07;1.00;;;11.30;56.50;;;;;;4997044;28;20236;-59
2023/01/14 06:06:30;;;;;;;3.53;1.40;;;11.20;56.20;;;;;;5003147;28;20455;-59
2023/01/14 06:08:58;;;;;;;5.87;1.53;;;11.30;56.20;;;;;;4997368;28;20533;-59
2023/01/14 06:11:26;;;;;;;4.40;1.37;;;11.20;56.10;;;;;;5002200;28;20444;-59
2023/01/14 06:13:56;;;;;;;5.77;1.50;;;11.30;56.00;;;;;;5010106;28;20476;-59
2023/01/14 06:16:23;;;;;;;5.50;1.40;;;11.20;56.00;;;;;;5003690;28;20548;-59
2023/01/14 06:18:49;;;;;;;2.70;1.17;;;11.20;56.00;;;;;;4999987;28;20532;-59
2023/01/14 06:21:17;;;;;;;3.67;1.30;;;11.10;56.00;;;;;;4998662;28;20617;-59
2023/01/14 06:23:43;;;;;;;6.33;1.07;;;11.20;57.30;;;;;;4991324;28;20566;-59
2023/01/14 06:26:15;;;;;;;5.53;1.57;;;11.40;58.30;;;;;;4998095;28;20448;-59
2023/01/14 06:28:41;;;;;;;4.80;1.50;;;11.60;58.40;;;;;;5009539;28;20555;-59
2023/01/14 06:31:11;;;;;;;4.47;2.03;;;11.80;57.90;;;;;;5000029;28;20543;-59
2023/01/14 06:33:37;;;;;;;5.00;1.40;;;11.80;55.00;;;;;;4994442;28;20467;-59
2023/01/14 06:36:03;;;;;;;2.83;1.20;;;11.60;54.10;;;;;;5000169;28;20510;-58
2023/01/14 06:38:28;;;;;;;3.40;1.73;;;11.10;54.80;;;;;;5004957;28;20531;-58
2023/01/14 06:40:58;;;;;;;3.07;1.43;;;11.10;55.20;;;;;;5002573;28;20247;-58
2023/01/14 06:43:24;;;;;;;2.70;1.17;;;11.10;55.40;;;;;;5006517;28;20186;-58
2023/01/14 06:45:56;;;;;;;7.23;2.50;;;10.90;55.40;;;;;;5004121;28;20991;-59
2023/01/14 06:48:24;;;;;;;4.17;2.40;;;10.80;55.40;;;;;;4999196;28;20276;-59
2023/01/14 06:50:50;;;;;;;4.80;1.97;;;10.50;56.30;;;;;;4996502;28;20445;-59
2023/01/14 06:53:16;;;;;;;6.37;3.37;;;10.30;56.70;;;;;;5008954;28;20804;-58
2023/01/14 06:55:41;;;;;;;5.30;2.87;;;10.10;57.40;;;;;;4997159;28;20485;-60
2023/01/14 06:58:07;;;;;;;3.70;2.07;;;9.80;58.90;;;;;;5011035;28;20198;-59
2023/01/14 07:00:33;;;;;;;4.80;1.73;;;9.90;58.90;;;;;;5007532;28;20198;-59
2023/01/14 07:02:58;;;;;;;5.20;1.43;;;9.80;59.10;;;;;;5002068;28;20554;-59
2023/01/14 07:05:24;;;;;;;6.40;1.27;;;9.60;59.60;;;;;;5000735;28;20833;-60
2023/01/14 07:07:49;;;;;;;2.13;1.27;;;9.60;60.40;;;;;;5008731;28;20271;-60
2023/01/14 07:10:16;;;;;;;4.13;1.30;;;9.50;60.20;;;;;;4999401;28;20237;-60
2023/01/14 07:12:50;;;;;;;2.93;1.33;;;9.80;60.00;;;;;;5008719;28;20312;-60
2023/01/14 07:15:17;;;;;;;5.73;1.60;;;10.20;58.60;;;;;;4999653;28;20490;-60
2023/01/14 07:17:48;;;;;;;3.90;1.60;;;10.30;58.00;;;;;;5006491;28;20541;-59
2023/01/14 07:20:14;;;;;;;5.17;1.90;;;10.50;57.40;;;;;;5003095;28;20444;-59
2023/01/14 07:22:40;;;;;;;4.10;1.50;;;10.50;57.20;;;;;;5004128;28;20449;-60
2023/01/14 07:25:08;;;;;;;5.00;2.00;;;10.60;57.30;;;;;;5006103;28;20516;-59
2023/01/14 07:27:34;;;;;;;6.17;2.17;;;10.60;57.50;;;;;;5004123;28;20202;-58
2023/01/14 07:29:59;;;;;;;6.90;2.20;;;10.80;57.30;;;;;;5005225;28;20936;-59
2023/01/14 07:32:25;;;;;;;5.17;2.30;;;10.80;57.30;;;;;;4999640;28;20443;-59
2023/01/14 07:34:51;;;;;;;6.70;3.00;;;10.70;57.60;;;;;;5009136;28;20659;-59
2023/01/14 07:37:17;;;;;;;12.30;2.30;;;10.60;58.00;;;;;;5003442;28;20488;-59
2023/01/14 07:39:43;;;;;;;4.80;1.50;;;10.50;58.30;;;;;;5006309;28;20269;-59
2023/01/14 07:42:09;;;;;;;4.60;1.67;;;10.20;58.60;;;;;;5002265;28;20999;-60
2023/01/14 07:44:35;;;;;;;9.27;2.17;;;10.00;59.30;;;;;;5008593;28;20196;-63
2023/01/14 07:47:01;;;;;;;4.83;1.40;;;10.00;59.60;;;;;;5004293;28;20548;-58
2023/01/14 07:49:27;;;;;;;4.20;1.40;;;10.00;59.90;;;;;;5009028;28;20448;-58
2023/01/14 07:51:53;;;;;;;4.67;2.00;;;10.00;59.70;;;;;;5002505;28;20441;-58
2023/01/14 07:54:19;;;;;;;11.00;4.60;;;10.00;60.10;;;;;;5001190;28;20232;-58
2023/01/14 07:56:46;;;;;;;4.33;1.57;;;10.20;60.30;;;;;;4999429;28;20222;-58
2023/01/14 07:59:12;;;;;;;11.97;2.50;;;10.30;59.70;;;;;;4992188;28;21062;-58
2023/01/14 08:01:38;;;;;;;6.70;2.50;;;10.20;59.30;;;;;;5008120;28;20571;-58
2023/01/14 08:04:03;;;;;;;5.40;2.67;;;10.10;59.50;;;;;;5011600;28;20204;-58
2023/01/14 08:06:29;;;;;;;14.80;3.67;;;10.00;60.40;;;;;;5010616;28;20225;-58
2023/01/14 08:08:55;;;;;;;3.60;1.80;;;10.00;61.80;;;;;;5011627;28;20220;-58
2023/01/14 08:11:21;;;;;;;9.03;2.90;;;10.10;60.60;;;;;;5011080;28;20927;-58
2023/01/14 08:13:49;;;;;;;5.00;3.00;;;10.30;60.10;;;;;;5009913;28;20198;-58
2023/01/14 08:16:15;;;;;;;5.10;2.20;;;10.60;59.30;;;;;;5010473;28;20276;-59
2023/01/14 08:18:41;;;;;;;4.70;1.70;;;10.70;59.10;;;;;;5011606;28;20437;-58
2023/01/14 08:21:09;;;;;;;2.40;1.93;;;10.70;58.80;;;;;;5011181;28;20513;-58
2023/01/14 08:23:36;;;;;;;5.53;2.17;;;10.80;58.80;;;;;;5011392;28;20194;-58
2023/01/14 08:26:03;;;;;;;8.73;2.40;;;11.00;58.60;;;;;;5010348;28;20449;-58
2023/01/14 08:28:29;;;;;;;6.60;2.13;;;11.20;58.00;;;;;;5000191;28;20417;-58
2023/01/14 08:31:11;;;;;;;12.53;4.80;;;11.30;57.70;;;;;;4991182;28;20487;-58
2023/01/14 08:33:37;;;;;;;7.97;4.70;;;11.30;57.90;;;;;;4991749;28;20591;-58
2023/01/14 08:36:06;;;;;;;6.23;2.83;;;11.20;57.90;;;;;;4996915;28;20480;-58
2023/01/14 08:38:33;;;;;;;5.83;1.80;;;11.10;58.00;;;;;;5011190;28;20436;-59
2023/01/14 08:41:03;;;;;;;3.67;1.73;;;11.00;58.40;;;;;;5008106;28;20782;-58
2023/01/14 08:43:28;;;;;;;4.33;2.00;;;11.00;58.70;;;;;;5011185;28;20429;-58
2023/01/14 08:45:54;;;;;;;5.37;2.50;;;11.00;58.90;;;;;;5010220;28;20428;-59
2023/01/14 08:48:19;;;;;;;8.77;3.83;;;11.20;59.00;;;;;;5010637;28;20288;-59
2023/01/14 08:50:45;;;;;;;3.27;1.80;;;11.20;58.90;;;;;;5009205;28;20308;-58
2023/01/14 08:53:11;;;;;;;3.30;1.67;;;11.30;58.50;;;;;;5011030;28;20558;-58
2023/01/14 08:55:36;;;;;;;4.27;1.73;;;11.30;58.20;;;;;;5011119;28;20316;-59
2023/01/14 08:58:05;;;;;;;3.70;1.60;;;11.30;58.60;;;;;;5011986;28;20202;-58
2023/01/14 09:00:31;;;;;;;5.57;2.37;;;11.40;58.70;;;;;;5003122;28;20622;-59
2023/01/14 09:02:57;;;;;;;6.97;2.30;;;11.40;58.20;;;;;;5014604;28;20486;-58
2023/01/14 09:05:22;;;;;;;5.70;2.60;;;11.60;58.40;;;;;;5014656;28;20561;-59
2023/01/14 09:18:44;;;;;;;2.30;1.60;;;11.90;57.70;;;;;;5013362;28;20433;-59
2023/01/14 09:21:09;;;;;;;5.63;2.20;;;11.90;57.40;;;;;;5013499;28;20429;-59
2023/01/14 09:23:35;;;;;;;5.07;1.87;;;12.10;57.30;;;;;;5014099;28;20651;-58
2023/01/14 09:26:00;;;;;;;4.73;2.77;;;12.00;57.10;;;;;;5013990;28;20245;-58
2023/01/14 09:28:26;;;;;;;4.53;2.00;;;12.00;57.20;;;;;;5004495;28;20193;-58
2023/01/14 09:30:52;;;;;;;5.73;2.57;;;12.00;57.50;;;;;;5007544;28;20198;-58
2023/01/14 09:33:17;;;;;;;5.40;2.80;;;12.10;57.30;;;;;;5012347;28;20654;-58
2023/01/14 09:35:43;;;;;;;5.97;2.60;;;12.20;57.60;;;;;;5014017;28;20260;-58
2023/01/14 09:38:08;;;;;;;5.33;2.57;;;12.30;56.60;;;;;;5014056;28;20194;-58
2023/01/14 09:40:39;;;;;;;10.93;2.80;;;12.30;56.60;;;;;;5012516;28;21070;-58
2023/01/14 09:43:12;;;;;;;8.37;2.20;;;12.40;56.70;;;;;;5013701;28;20673;-58
2023/01/14 09:45:38;;;;;;;4.40;1.70;;;12.40;56.30;;;;;;5013637;28;20447;-58
2023/01/14 09:48:09;;;;;;;5.17;1.60;;;12.40;56.40;;;;;;5013483;28;20464;-58
2023/01/14 09:51:15;;;;;;;6.17;2.00;;;12.50;56.50;;;;;;5012003;28;20233;-58
2023/01/14 09:53:53;;;;;;;6.47;1.70;;;12.50;56.40;;;;;;5012952;28;20951;-58
2023/01/14 09:56:30;;;;;;;5.40;2.83;;;12.50;56.00;;;;;;5004972;28;20592;-58
2023/01/14 09:59:07;;;;;;;3.20;2.30;;;12.60;56.20;;;;;;4993854;28;20521;-58
2023/01/14 10:01:39;;;;;;;7.57;2.50;;;12.80;56.10;;;;;;4992102;28;21902;-58
2023/01/14 10:04:25;;;;;;;5.30;1.90;;;12.70;56.10;;;;;;4993701;28;20805;-58
2023/01/14 10:06:53;;;;;;;3.37;1.80;;;12.60;56.40;;;;;;4991488;28;20457;-58
2023/01/14 10:09:27;;;;;;;4.10;1.73;;;12.70;56.30;;;;;;5012617;28;20476;-58
2023/01/14 10:11:53;;;;;;;5.27;1.87;;;12.80;56.20;;;;;;5013001;28;20425;-58
2023/01/14 10:14:27;;;;;;;3.37;1.40;;;12.90;55.90;;;;;;5013293;28;20495;-58
2023/01/14 10:16:58;;;;;;;4.97;1.73;;;13.00;56.10;;;;;;5012088;28;20976;-58
2023/01/14 10:19:40;;;;;;;2.40;1.43;;;13.10;55.90;;;;;;5013066;28;20783;-58
2023/01/14 10:22:23;;;;;;;2.53;1.20;;;13.10;56.30;;;;;;5012793;28;20433;-58
2023/01/14 10:24:49;;;;;;;5.77;2.10;;;13.20;56.20;;;;;;5012861;28;20433;-59
2023/01/14 10:27:17;;;;;;;2.80;1.40;;;13.20;55.70;;;;;;5010256;28;20436;-58
2023/01/14 10:29:43;;;;;;;3.23;1.73;;;13.40;55.80;;;;;;5013100;28;20276;-58
2023/01/14 10:32:13;;;;;;;6.83;2.37;;;13.50;55.60;;;;;;5012477;28;20429;-58
2023/01/14 10:34:46;;;;;;;5.73;3.30;;;13.50;55.70;;;;;;5012985;28;20417;-58
2023/01/14 10:37:12;;;;;;;6.40;2.80;;;13.60;55.60;;;;;;5011916;28;20484;-58
2023/01/14 10:39:50;;;;;;;4.53;2.13;;;13.40;55.60;;;;;;5012965;28;20457;-58
2023/01/14 10:42:24;;;;;;;2.93;1.53;;;13.10;55.90;;;;;;5012330;28;20920;-58
2023/01/14 10:44:52;;;;;;;7.40;1.83;;;12.90;56.30;;;;;;5008707;28;20480;-58
2023/01/14 10:47:19;;;;;;;4.50;2.27;;;12.70;56.70;;;;;;5007351;28;20540;-58
2023/01/14 10:49:52;;;;;;;3.40;1.90;;;12.50;57.50;;;;;;5010188;28;20437;-58
2023/01/14 10:52:24;;;;;;;2.50;2.13;;;12.70;56.70;;;;;;5004725;28;20536;-59
2023/01/14 10:55:07;;;;;;;5.70;3.60;;;13.00;56.60;;;;;;4998826;28;20434;-58
2023/01/14 10:57:44;;;;;;;2.93;1.87;;;13.20;56.50;;;;;;5009744;28;20459;-58
2023/01/14 11:00:31;;;;;;;5.93;2.97;;;13.40;56.00;;;;;;5007165;28;20455;-57
2023/01/14 11:02:57;;;;;;;2.50;1.63;;;13.50;55.40;;;;;;4995839;28;20532;-58
2023/01/14 11:05:38;;;;;;;3.63;2.03;;;13.40;55.10;;;;;;4996347;28;20448;-59
2023/01/14 11:08:37;;;;;;;3.10;1.20;;;13.30;55.10;;;;;;5004377;28;20468;-59
2023/01/14 11:11:13;;;;;;;4.17;1.53;;;13.00;55.80;;;;;;5005017;28;20465;-59
2023/01/14 11:13:48;;;;;;;2.23;1.67;;;13.00;56.00;;;;;;5009247;28;20794;-59
2023/01/14 11:16:25;;;;;;;2.53;1.37;;;13.10;55.90;;;;;;4992570;28;20489;-59
2023/01/14 11:19:14;;;;;;;2.70;1.10;;;12.90;56.00;;;;;;5006697;28;20449;-59
2023/01/14 11:21:45;;;;;;;2.93;1.53;;;13.10;56.00;;;;;;4989051;28;20444;-59
2023/01/14 11:24:39;;;;;;;3.80;1.23;;;13.20;55.90;;;;;;5002944;28;20440;-59
2023/01/14 11:27:17;;;;;;;2.80;1.40;;;13.40;55.40;;;;;;5001736;28;20452;-59
2023/01/14 11:29:50;;;;;;;3.30;1.37;;;13.20;55.60;;;;;;5006924;28;20451;-59
2023/01/14 11:32:24;;;;;;;3.67;1.13;;;13.20;55.60;;;;;;4998376;28;20422;-59
2023/01/14 11:34:55;;;;;;;3.67;1.30;;;13.40;55.70;;;;;;5008951;28;20825;-59
2023/01/14 11:37:45;;;;;;;3.93;1.40;;;13.20;55.60;;;;;;5001552;28;20481;-59
2023/01/14 11:43:22;;;;;;;2.30;1.17;;;13.60;55.90;;;;;;4997402;28;20455;-59
2023/01/14 11:46:12;;;;;;;2.23;1.60;;;13.70;55.90;;;;;;5002479;28;20444;-59
2023/01/14 11:48:40;;;;;;;2.70;1.37;;;13.80;55.70;;;;;;4997328;28;20469;-59
2023/01/14 11:51:17;;;;;;;2.07;1.50;;;13.90;55.30;;;;;;5003166;28;20476;-59
2023/01/14 11:53:43;;;;;;;2.40;1.57;;;13.90;55.10;;;;;;4992056;28;20933;-59
2023/01/14 11:56:29;;;;;;;4.40;1.50;;;13.90;55.00;;;;;;5001981;28;20492;-58
2023/01/14 11:58:55;;;;;;;2.80;1.20;;;14.00;54.70;;;;;;4998264;28;20198;-59
2023/01/14 12:01:22;;;;;;;2.47;1.27;;;13.90;54.90;;;;;;5005485;28;20449;-59
2023/01/14 12:04:02;;;;;;;2.47;1.33;;;14.00;55.20;;;;;;4992095;28;20190;-59
2023/01/14 12:06:42;;;;;;;2.60;1.30;;;13.90;55.10;;;;;;5001233;28;20459;-59
2023/01/14 12:09:14;;;;;;;4.40;1.70;;;13.90;55.00;;;;;;4993602;28;20548;-59
2023/01/14 12:12:12;;;;;;;2.13;1.63;;;13.90;55.00;;;;;;5004204;28;20499;-59
2023/01/14 12:17:25;;;;;;;1.80;1.17;;;13.90;55.20;;;;;;5008624;28;20574;-59
2023/01/14 12:19:58;;;;;;;2.40;1.27;;;14.00;55.20;;;;;;5005904;28;20496;-59
2023/01/14 12:22:41;;;;;;;2.60;1.57;;;13.80;55.40;;;;;;4990755;28;20238;-59
2023/01/14 12:25:28;;;;;;;1.43;1.17;;;13.80;55.40;;;;;;5002041;28;20460;-59
2023/01/14 12:28:00;;;;;;;4.60;2.80;;;13.90;55.30;;;;;;5005402;28;20479;-59
2023/01/14 12:30:25;;;;;;;1.90;1.13;;;13.80;55.00;;;;;;5001641;28;20461;-59
2023/01/14 12:33:09;;;;;;;1.47;1.10;;;13.80;55.40;;;;;;5009464;28;20456;-59
2023/01/14 12:35:44;;;;;;;2.13;1.10;;;13.80;55.30;;;;;;5004655;28;20236;-59
2023/01/14 12:47:12;;;;;;;1.50;1.27;;;14.00;54.80;;;;;;4998267;28;20444;-60
2023/01/14 12:49:39;;;;;;;3.27;1.90;;;14.00;54.60;;;;;;5011363;28;20445;-59
2023/01/14 12:52:07;;;;;;;2.23;1.17;;;13.90;54.80;;;;;;5008311;28;20680;-59
2023/01/14 12:54:35;;;;;;;2.67;1.67;;;13.80;54.80;;;;;;5013679;28;20456;-59
2023/01/14 12:57:03;;;;;;;2.03;1.57;;;13.40;55.50;;;;;;5000338;28;20964;-59
2023/01/14 12:59:52;;;;;;;2.40;1.30;;;13.10;56.30;;;;;;5007680;28;20843;-59
2023/01/14 13:02:28;;;;;;;3.27;2.27;;;13.30;56.50;;;;;;5013023;28;20942;-60
2023/01/14 13:05:08;;;;;;;2.90;1.70;;;13.40;56.00;;;;;;5007805;28;20451;-58
2023/01/14 13:07:38;;;;;;;2.27;1.37;;;13.30;55.60;;;;;;5003766;28;20992;-58
2023/01/14 13:10:07;;;;;;;3.87;2.10;;;13.10;55.90;;;;;;5010226;28;20526;-58
2023/01/14 13:12:36;;;;;;;26.53;3.30;;;13.10;56.00;;;;;;5013534;28;20425;-57
2023/01/14 13:15:17;;;;;;;3.47;1.73;;;12.90;56.20;;;;;;4998120;28;20437;-57
2023/01/14 13:17:50;;;;;;;4.53;2.00;;;12.90;56.40;;;;;;5004547;28;21956;-57
2023/01/14 13:20:18;;;;;;;4.70;1.60;;;13.00;56.20;;;;;;5003951;28;21024;-57
2023/01/14 13:22:53;;;;;;;3.23;1.60;;;13.00;56.40;;;;;;4998037;28;20539;-58
2023/01/14 13:25:19;;;;;;;3.43;1.90;;;13.00;55.50;;;;;;5006400;28;20440;-57
2023/01/14 13:27:46;;;;;;;2.17;1.40;;;13.20;55.40;;;;;;5009636;28;20444;-57
2023/01/14 13:30:17;;;;;;;6.20;1.67;;;13.10;55.10;;;;;;4998101;28;20194;-57
2023/01/14 13:33:02;;;;;;;8.63;1.83;;;13.10;55.00;;;;;;4998802;28;20472;-57
2023/01/14 13:35:30;;;;;;;4.70;1.87;;;13.20;55.00;;;;;;5013480;28;20484;-57
2023/01/14 13:37:58;;;;;;;1.90;1.60;;;13.10;54.50;;;;;;5013301;28;20447;-57
2023/01/14 13:40:31;;;;;;;5.67;2.43;;;13.00;54.80;;;;;;4999715;28;20453;-58
2023/01/14 13:43:01;;;;;;;4.87;1.43;;;13.00;55.00;;;;;;5012662;28;20475;-57
2023/01/14 13:45:28;;;;;;;2.23;1.60;;;12.90;54.20;;;;;;5011331;28;20475;-58
2023/01/14 13:48:06;;;;;;;2.33;1.93;;;13.30;54.20;;;;;;5013616;28;20539;-58